createdAt,value
2016-08-07T00:00:32.797Z,1022.07
2016-08-07T00:01:32.784Z,1022.03
2016-08-07T00:02:32.766Z,1022.06
2016-08-07T00:03:32.751Z,1022.04
2016-08-07T00:04:32.733Z,1022.06
2016-08-07T00:05:32.723Z,1022.06
2016-08-07T00:06:32.706Z,1022.03
2016-08-07T00:07:32.687Z,1022.06
2016-08-07T00:08:32.671Z,1022.06
2016-08-07T00:09:32.658Z,1022.04
2016-08-07T00:10:32.636Z,1022.07
2016-08-07T00:11:32.620Z,1022.03
2016-08-07T00:12:32.605Z,1022
2016-08-07T00:13:32.591Z,1022.01
2016-08-07T00:14:32.575Z,1022.03
2016-08-07T00:15:32.558Z,1022
2016-08-07T00:16:32.541Z,1021.97
2016-08-07T00:17:32.527Z,1021.93
2016-08-07T00:18:32.513Z,1021.91
2016-08-07T00:19:32.493Z,1021.86
2016-08-07T00:20:32.481Z,1021.92
2016-08-07T00:21:32.462Z,1021.92
2016-08-07T00:22:32.448Z,1021.88
2016-08-07T00:23:32.430Z,1021.89
2016-08-07T00:24:32.417Z,1021.88
2016-08-07T00:25:32.397Z,1021.84
2016-08-07T00:26:32.384Z,1021.83
2016-08-07T00:27:32.364Z,1021.81
2016-08-07T00:28:32.350Z,1021.88
2016-08-07T00:29:32.332Z,1021.88
2016-08-07T00:30:32.319Z,1021.88
2016-08-07T00:31:32.303Z,1021.86
2016-08-07T00:32:32.283Z,1021.84
2016-08-07T00:33:32.273Z,1021.82
2016-08-07T00:34:32.253Z,1021.78
2016-08-07T00:35:32.242Z,1021.81
2016-08-07T00:36:32.221Z,1021.81
2016-08-07T00:37:32.207Z,1021.79
2016-08-07T00:38:32.190Z,1021.82
2016-08-07T00:39:32.179Z,1021.8
2016-08-07T00:40:32.158Z,1021.79
2016-08-07T00:41:32.142Z,1021.84
2016-08-07T00:42:32.128Z,1021.87
2016-08-07T00:43:32.111Z,1021.88
2016-08-07T00:44:32.095Z,1021.83
2016-08-07T00:45:32.076Z,1021.82
2016-08-07T00:46:32.062Z,1021.78
2016-08-07T00:47:32.062Z,1021.79
2016-08-07T00:48:32.035Z,1021.78
2016-08-07T00:49:32.031Z,1021.79
2016-08-07T00:50:32.002Z,1021.79
2016-08-07T00:51:31.981Z,1021.77
2016-08-07T00:52:31.963Z,1021.74
2016-08-07T00:53:31.950Z,1021.72
2016-08-07T00:54:31.932Z,1021.71
2016-08-07T00:55:31.918Z,1021.7
2016-08-07T00:56:31.900Z,1021.71
2016-08-07T00:57:31.886Z,1021.64
2016-08-07T00:58:31.867Z,1021.66
2016-08-07T00:59:31.854Z,1021.64
2016-08-07T01:00:31.946Z,1021.67
2016-08-07T01:01:31.823Z,1021.63
2016-08-07T01:02:31.806Z,1021.63
2016-08-07T01:03:31.787Z,1021.6
2016-08-07T01:04:31.773Z,1021.57
2016-08-07T01:05:31.756Z,1021.51
2016-08-07T01:06:31.745Z,1021.53
2016-08-07T01:07:31.723Z,1021.51
2016-08-07T01:08:31.710Z,1021.55
2016-08-07T01:09:31.694Z,1021.56
2016-08-07T01:10:31.678Z,1021.5
2016-08-07T01:11:31.659Z,1021.53
2016-08-07T01:12:31.645Z,1021.52
2016-08-07T01:13:31.628Z,1021.59
2016-08-07T01:14:31.614Z,1021.56
2016-08-07T01:15:31.597Z,1021.5
2016-08-07T01:16:31.579Z,1021.54
2016-08-07T01:17:31.563Z,1021.52
2016-08-07T01:18:31.549Z,1021.55
2016-08-07T01:19:31.532Z,1021.52
2016-08-07T01:20:31.520Z,1021.56
2016-08-07T01:21:31.501Z,1021.56
2016-08-07T01:22:31.484Z,1021.57
2016-08-07T01:23:31.470Z,1021.6
2016-08-07T01:24:31.453Z,1021.55
2016-08-07T01:25:31.438Z,1021.54
2016-08-07T01:26:31.421Z,1021.59
2016-08-07T01:27:31.404Z,1021.57
2016-08-07T01:28:31.391Z,1021.63
2016-08-07T01:29:31.373Z,1021.66
2016-08-07T01:30:31.358Z,1021.7
2016-08-07T01:31:31.346Z,1021.69
2016-08-07T01:32:31.326Z,1021.67
2016-08-07T01:33:31.310Z,1021.67
2016-08-07T01:34:31.296Z,1021.66
2016-08-07T01:35:31.281Z,1021.67
2016-08-07T01:36:31.262Z,1021.67
2016-08-07T01:37:31.246Z,1021.68
2016-08-07T01:38:31.233Z,1021.74
2016-08-07T01:39:31.216Z,1021.69
2016-08-07T01:40:31.201Z,1021.67
2016-08-07T01:41:31.185Z,1021.71
2016-08-07T01:42:31.168Z,1021.7
2016-08-07T01:43:31.154Z,1021.69
2016-08-07T01:44:31.135Z,1021.68
2016-08-07T01:45:31.123Z,1021.68
2016-08-07T01:46:31.108Z,1021.68
2016-08-07T01:47:31.093Z,1021.62
2016-08-07T01:48:31.074Z,1021.64
2016-08-07T01:49:31.056Z,1021.66
2016-08-07T01:50:31.039Z,1021.67
2016-08-07T01:51:31.026Z,1021.65
2016-08-07T01:52:31.020Z,1021.66
2016-08-07T01:53:30.991Z,1021.64
2016-08-07T01:54:30.978Z,1021.66
2016-08-07T01:55:30.963Z,1021.67
2016-08-07T01:56:30.945Z,1021.72
2016-08-07T01:57:30.929Z,1021.78
2016-08-07T01:58:30.916Z,1021.73
2016-08-07T01:59:30.897Z,1021.71
2016-08-07T02:00:30.887Z,1021.73
2016-08-07T02:01:30.869Z,1021.66
2016-08-07T02:02:30.850Z,1021.67
2016-08-07T02:03:30.835Z,1021.67
2016-08-07T02:04:30.816Z,1021.68
2016-08-07T02:05:30.801Z,1021.67
2016-08-07T02:06:30.787Z,1021.63
2016-08-07T02:07:30.775Z,1021.64
2016-08-07T02:08:30.755Z,1021.63
2016-08-07T02:09:30.738Z,1021.63
2016-08-07T02:10:30.728Z,1021.68
2016-08-07T02:11:30.707Z,1021.69
2016-08-07T02:12:30.691Z,1021.71
2016-08-07T02:13:30.674Z,1021.74
2016-08-07T02:14:30.659Z,1021.69
2016-08-07T02:15:30.645Z,1021.72
2016-08-07T02:16:30.627Z,1021.71
2016-08-07T02:17:30.610Z,1021.71
2016-08-07T02:18:30.598Z,1021.71
2016-08-07T02:19:30.577Z,1021.68
2016-08-07T02:20:30.564Z,1021.69
2016-08-07T02:21:30.550Z,1021.66
2016-08-07T02:22:30.534Z,1021.7
2016-08-07T02:23:30.515Z,1021.7
2016-08-07T02:24:30.499Z,1021.68
2016-08-07T02:25:30.485Z,1021.68
2016-08-07T02:26:30.464Z,1021.69
2016-08-07T02:27:30.449Z,1021.68
2016-08-07T02:28:30.436Z,1021.64
2016-08-07T02:29:30.421Z,1021.66
2016-08-07T02:30:30.404Z,1021.65
2016-08-07T02:31:30.389Z,1021.67
2016-08-07T02:32:30.374Z,1021.66
2016-08-07T02:33:30.353Z,1021.67
2016-08-07T02:34:30.350Z,1021.63
2016-08-07T02:35:30.807Z,1021.64
2016-08-07T02:36:30.304Z,1021.6
2016-08-07T02:37:30.287Z,1021.58
2016-08-07T02:38:30.277Z,1021.59
2016-08-07T02:39:30.259Z,1021.58
2016-08-07T02:40:30.241Z,1021.58
2016-08-07T02:41:30.226Z,1021.61
2016-08-07T02:42:30.209Z,1021.54
2016-08-07T02:43:30.192Z,1021.56
2016-08-07T02:44:30.177Z,1021.57
2016-08-07T02:45:30.159Z,1021.58
2016-08-07T02:46:30.142Z,1021.54
2016-08-07T02:47:30.130Z,1021.54
2016-08-07T02:48:30.112Z,1021.55
2016-08-07T02:49:30.101Z,1021.58
2016-08-07T02:50:30.078Z,1021.59
2016-08-07T02:52:30.045Z,1021.63
2016-08-07T02:53:30.032Z,1021.63
2016-08-07T02:54:30.014Z,1021.59
2016-08-07T02:55:29.996Z,1021.57
2016-08-07T02:56:29.983Z,1021.59
2016-08-07T02:57:29.969Z,1021.58
2016-08-07T02:58:29.950Z,1021.6
2016-08-07T02:59:29.932Z,1021.6
2016-08-07T03:00:29.919Z,1021.6
2016-08-07T03:01:29.900Z,1021.59
2016-08-07T03:02:29.884Z,1021.6
2016-08-07T03:03:29.867Z,1021.58
2016-08-07T03:04:29.852Z,1021.6
2016-08-07T03:05:29.839Z,1021.57
2016-08-07T03:07:29.800Z,1021.56
2016-08-07T03:08:29.790Z,1021.56
2016-08-07T03:09:29.771Z,1021.58
2016-08-07T03:10:29.752Z,1021.56
2016-08-07T03:11:29.740Z,1021.56
2016-08-07T03:12:29.723Z,1021.58
2016-08-07T03:13:29.705Z,1021.61
2016-08-07T03:14:29.691Z,1021.54
2016-08-07T03:15:29.671Z,1021.52
2016-08-07T03:16:29.655Z,1021.56
2016-08-07T03:17:29.642Z,1021.56
2016-08-07T03:18:29.623Z,1021.56
2016-08-07T03:19:29.608Z,1021.58
2016-08-07T03:20:29.588Z,1021.56
2016-08-07T03:22:29.556Z,1021.59
2016-08-07T03:23:29.540Z,1021.59
2016-08-07T03:24:29.524Z,1021.63
2016-08-07T03:25:29.507Z,1021.61
2016-08-07T03:26:29.492Z,1021.6
2016-08-07T03:27:29.474Z,1021.62
2016-08-07T03:28:29.459Z,1021.65
2016-08-07T03:29:29.446Z,1021.64
2016-08-07T03:30:29.430Z,1021.61
2016-08-07T03:31:29.407Z,1021.62
2016-08-07T03:32:29.394Z,1021.57
2016-08-07T03:33:29.379Z,1021.57
2016-08-07T03:34:29.358Z,1021.62
2016-08-07T03:35:29.341Z,1021.62
2016-08-07T03:37:29.310Z,1021.54
2016-08-07T03:38:29.293Z,1021.61
2016-08-07T03:39:29.274Z,1021.53
2016-08-07T03:40:29.259Z,1021.56
2016-08-07T03:41:29.249Z,1021.53
2016-08-07T03:42:29.225Z,1021.54
2016-08-07T03:43:29.212Z,1021.56
2016-08-07T03:44:29.192Z,1021.52
2016-08-07T03:45:29.179Z,1021.51
2016-08-07T03:46:29.170Z,1021.52
2016-08-07T03:47:29.145Z,1021.49
2016-08-07T03:48:29.126Z,1021.49
2016-08-07T03:49:29.110Z,1021.49
2016-08-07T03:50:29.093Z,1021.48
2016-08-07T03:51:29.077Z,1021.51
2016-08-07T03:52:29.070Z,1021.49
2016-08-07T03:53:29.045Z,1021.46
2016-08-07T03:54:29.028Z,1021.43
2016-08-07T03:55:29.015Z,1021.43
2016-08-07T03:56:28.993Z,1021.42
2016-08-07T03:57:28.981Z,1021.44
2016-08-07T03:58:28.963Z,1021.37
2016-08-07T03:59:28.945Z,1021.43
2016-08-07T04:00:28.930Z,1021.43
2016-08-07T04:01:28.913Z,1021.46
2016-08-07T04:02:28.896Z,1021.43
2016-08-07T04:03:28.880Z,1021.37
2016-08-07T04:04:28.868Z,1021.37
2016-08-07T04:05:28.846Z,1021.37
2016-08-07T04:06:28.831Z,1021.37
2016-08-07T04:07:28.822Z,1021.36
2016-08-07T04:08:28.794Z,1021.31
2016-08-07T04:09:28.780Z,1021.3
2016-08-07T04:10:28.765Z,1021.33
2016-08-07T04:11:28.745Z,1021.28
2016-08-07T04:12:28.730Z,1021.34
2016-08-07T04:13:28.716Z,1021.32
2016-08-07T04:14:28.697Z,1021.28
2016-08-07T04:15:28.681Z,1021.33
2016-08-07T04:16:28.688Z,1021.32
2016-08-07T04:17:28.651Z,1021.34
2016-08-07T04:18:28.635Z,1021.37
2016-08-07T04:19:28.615Z,1021.36
2016-08-07T04:20:28.597Z,1021.36
2016-08-07T04:21:28.582Z,1021.38
2016-08-07T04:22:28.566Z,1021.36
2016-08-07T04:23:28.543Z,1021.35
2016-08-07T04:24:28.531Z,1021.35
2016-08-07T04:25:28.517Z,1021.34
2016-08-07T04:26:28.502Z,1021.36
2016-08-07T04:27:28.481Z,1021.42
2016-08-07T04:28:28.466Z,1021.43
2016-08-07T04:29:28.449Z,1021.44
2016-08-07T04:30:28.432Z,1021.45
2016-08-07T04:31:28.416Z,1021.37
2016-08-07T04:32:28.402Z,1021.39
2016-08-07T04:33:28.386Z,1021.4
2016-08-07T04:34:28.365Z,1021.41
2016-08-07T04:35:28.352Z,1021.37
2016-08-07T04:36:28.332Z,1021.35
2016-08-07T04:37:28.313Z,1021.36
2016-08-07T04:38:28.300Z,1021.35
2016-08-07T04:39:28.282Z,1021.32
2016-08-07T04:40:28.275Z,1021.32
2016-08-07T04:41:28.246Z,1021.32
2016-08-07T04:42:28.233Z,1021.3
2016-08-07T04:43:28.216Z,1021.35
2016-08-07T04:44:28.204Z,1021.35
2016-08-07T04:45:28.187Z,1021.35
2016-08-07T04:46:28.174Z,1021.34
2016-08-07T04:47:28.152Z,1021.35
2016-08-07T04:48:28.134Z,1021.31
2016-08-07T04:49:28.117Z,1021.38
2016-08-07T04:50:28.102Z,1021.39
2016-08-07T04:51:28.088Z,1021.4
2016-08-07T04:52:28.067Z,1021.42
2016-08-07T04:53:28.053Z,1021.44
2016-08-07T04:54:28.035Z,1021.44
2016-08-07T04:55:28.031Z,1021.39
2016-08-07T04:56:27.999Z,1021.44
2016-08-07T04:57:27.985Z,1021.41
2016-08-07T04:58:27.968Z,1021.4
2016-08-07T04:59:27.949Z,1021.41
2016-08-07T05:00:27.944Z,1021.43
2016-08-07T05:01:27.919Z,1021.47
2016-08-07T05:02:27.901Z,1021.45
2016-08-07T05:03:27.884Z,1021.44
2016-08-07T05:04:27.868Z,1021.45
2016-08-07T05:05:27.851Z,1021.48
2016-08-07T05:06:27.835Z,1021.45
2016-08-07T05:07:27.823Z,1021.4
2016-08-07T05:08:27.800Z,1021.42
2016-08-07T05:09:27.789Z,1021.43
2016-08-07T05:10:27.768Z,1021.41
2016-08-07T05:11:27.757Z,1021.41
2016-08-07T05:12:27.737Z,1021.37
2016-08-07T05:13:27.715Z,1021.35
2016-08-07T05:14:27.699Z,1021.34
2016-08-07T05:15:27.683Z,1021.36
2016-08-07T05:16:27.670Z,1021.39
2016-08-07T05:17:27.650Z,1021.34
2016-08-07T05:18:27.633Z,1021.36
2016-08-07T05:19:27.618Z,1021.39
2016-08-07T05:20:27.602Z,1021.4
2016-08-07T05:21:27.584Z,1021.41
2016-08-07T05:22:27.568Z,1021.41
2016-08-07T05:23:27.554Z,1021.4
2016-08-07T05:24:27.533Z,1021.4
2016-08-07T05:25:27.522Z,1021.38
2016-08-07T05:26:27.504Z,1021.36
2016-08-07T05:27:27.484Z,1021.36
2016-08-07T05:28:27.469Z,1021.37
2016-08-07T05:29:27.452Z,1021.35
2016-08-07T05:30:27.433Z,1021.38
2016-08-07T05:31:27.418Z,1021.4
2016-08-07T05:32:27.398Z,1021.36
2016-08-07T05:33:27.383Z,1021.39
2016-08-07T05:34:27.371Z,1021.42
2016-08-07T05:35:27.351Z,1021.41
2016-08-07T05:36:27.333Z,1021.44
2016-08-07T05:37:27.316Z,1021.44
2016-08-07T05:38:27.305Z,1021.44
2016-08-07T05:39:27.286Z,1021.44
2016-08-07T05:40:27.267Z,1021.43
2016-08-07T05:41:27.255Z,1021.44
2016-08-07T05:42:27.232Z,1021.45
2016-08-07T05:43:27.221Z,1021.41
2016-08-07T05:44:27.200Z,1021.47
2016-08-07T05:45:27.183Z,1021.43
2016-08-07T05:46:27.168Z,1021.46
2016-08-07T05:47:27.157Z,1021.51
2016-08-07T05:48:27.137Z,1021.5
2016-08-07T05:49:27.118Z,1021.47
2016-08-07T05:50:27.101Z,1021.47
2016-08-07T05:51:27.084Z,1021.43
2016-08-07T05:52:27.071Z,1021.46
2016-08-07T05:53:27.117Z,1021.42
2016-08-07T05:54:27.033Z,1021.42
2016-08-07T05:55:27.038Z,1021.38
2016-08-07T05:56:27.002Z,1021.42
2016-08-07T05:57:26.984Z,1021.42
2016-08-07T05:58:26.967Z,1021.38
2016-08-07T05:59:26.951Z,1021.42
2016-08-07T06:00:26.933Z,1021.46
2016-08-07T06:01:26.921Z,1021.44
2016-08-07T06:02:26.900Z,1021.46
2016-08-07T06:03:26.885Z,1021.48
2016-08-07T06:04:26.867Z,1021.45
2016-08-07T06:05:26.849Z,1021.43
2016-08-07T06:06:26.837Z,1021.39
2016-08-07T06:07:26.817Z,1021.38
2016-08-07T06:08:26.802Z,1021.39
2016-08-07T06:09:26.783Z,1021.41
2016-08-07T06:10:26.767Z,1021.4
2016-08-07T06:11:26.751Z,1021.35
2016-08-07T06:12:26.734Z,1021.38
2016-08-07T06:13:26.719Z,1021.34
2016-08-07T06:14:26.702Z,1021.36
2016-08-07T06:15:26.683Z,1021.34
2016-08-07T06:16:26.667Z,1021.35
2016-08-07T06:17:26.652Z,1021.33
2016-08-07T06:18:26.635Z,1021.39
2016-08-07T06:19:26.617Z,1021.36
2016-08-07T06:20:26.688Z,1021.33
2016-08-07T06:21:26.589Z,1021.39
2016-08-07T06:23:26.549Z,1021.43
2016-08-07T06:24:26.540Z,1021.41
2016-08-07T06:25:26.517Z,1021.39
2016-08-07T06:26:26.504Z,1021.47
2016-08-07T06:27:26.482Z,1021.46
2016-08-07T06:28:26.475Z,1021.45
2016-08-07T06:29:26.450Z,1021.51
2016-08-07T06:30:26.439Z,1021.48
2016-08-07T06:31:26.419Z,1021.49
2016-08-07T06:32:26.401Z,1021.49
2016-08-07T06:33:26.387Z,1021.48
2016-08-07T06:34:26.365Z,1021.48
2016-08-07T06:35:26.683Z,1021.54
2016-08-07T06:36:26.335Z,1021.54
2016-08-07T06:38:26.300Z,1021.53
2016-08-07T06:39:26.283Z,1021.48
2016-08-07T06:40:26.267Z,1021.46
2016-08-07T06:41:26.250Z,1021.43
2016-08-07T06:42:26.235Z,1021.41
2016-08-07T06:43:26.217Z,1021.42
2016-08-07T06:44:26.200Z,1021.4
2016-08-07T06:45:26.181Z,1021.42
2016-08-07T06:46:26.169Z,1021.42
2016-08-07T06:47:26.151Z,1021.42
2016-08-07T06:48:26.136Z,1021.44
2016-08-07T06:49:26.119Z,1021.45
2016-08-07T06:50:26.098Z,1021.41
2016-08-07T06:51:26.087Z,1021.4
2016-08-07T06:53:26.057Z,1021.43
2016-08-07T06:54:26.035Z,1021.46
2016-08-07T06:55:26.024Z,1021.45
2016-08-07T06:56:26.002Z,1021.43
2016-08-07T06:57:25.995Z,1021.41
2016-08-07T06:58:25.969Z,1021.4
2016-08-07T06:59:25.952Z,1021.42
2016-08-07T07:00:25.935Z,1021.42
2016-08-07T07:01:25.918Z,1021.33
2016-08-07T07:02:25.905Z,1021.36
2016-08-07T07:03:25.886Z,1021.32
2016-08-07T07:04:25.870Z,1021.33
2016-08-07T07:05:25.853Z,1021.31
2016-08-07T07:06:25.841Z,1021.35
2016-08-07T07:08:25.799Z,1021.36
2016-08-07T07:09:25.786Z,1021.35
2016-08-07T07:10:25.768Z,1021.36
2016-08-07T07:11:25.760Z,1021.33
2016-08-07T07:12:25.749Z,1021.35
2016-08-07T07:13:25.720Z,1021.31
2016-08-07T07:14:25.706Z,1021.3
2016-08-07T07:15:25.690Z,1021.26
2016-08-07T07:16:25.668Z,1021.3
2016-08-07T07:17:25.664Z,1021.27
2016-08-07T07:18:25.635Z,1021.27
2016-08-07T07:19:25.618Z,1021.28
2016-08-07T07:20:25.605Z,1021.26
2016-08-07T07:21:25.588Z,1021.25
2016-08-07T07:22:25.570Z,1021.23
2016-08-07T07:23:25.552Z,1021.29
2016-08-07T07:24:25.538Z,1021.28
2016-08-07T07:25:25.524Z,1021.23
2016-08-07T07:26:25.503Z,1021.18
2016-08-07T07:27:25.488Z,1021.2
2016-08-07T07:28:25.470Z,1021.19
2016-08-07T07:29:25.453Z,1021.23
2016-08-07T07:30:25.483Z,1021.19
2016-08-07T07:31:25.422Z,1021.23
2016-08-07T07:32:25.405Z,1021.21
2016-08-07T07:33:25.388Z,1021.17
2016-08-07T07:34:25.383Z,1021.21
2016-08-07T07:35:25.354Z,1021.18
2016-08-07T07:36:25.339Z,1021.2
2016-08-07T07:37:25.320Z,1021.14
2016-08-07T07:38:25.307Z,1021.15
2016-08-07T07:39:25.290Z,1021.14
2016-08-07T07:40:25.278Z,1021.13
2016-08-07T07:41:25.257Z,1021.17
2016-08-07T07:42:25.240Z,1021.13
2016-08-07T07:43:25.224Z,1021.15
2016-08-07T07:44:25.206Z,1021.14
2016-08-07T07:45:25.190Z,1021.07
2016-08-07T07:46:25.175Z,1021.1
2016-08-07T07:47:25.160Z,1021.06
2016-08-07T08:02:19.956Z,1021.01
2016-08-07T08:03:19.941Z,1021.01
2016-08-07T08:04:19.921Z,1021.01
2016-08-07T08:05:19.907Z,1021.01
2016-08-07T08:06:19.890Z,1020.97
2016-08-07T08:07:19.879Z,1020.94
2016-08-07T08:08:19.856Z,1020.96
2016-08-07T08:09:19.841Z,1020.9
2016-08-07T08:10:19.823Z,1020.89
2016-08-07T08:11:19.806Z,1020.87
2016-08-07T08:12:19.792Z,1020.87
2016-08-07T08:13:19.776Z,1020.82
2016-08-07T08:14:19.759Z,1020.8
2016-08-07T08:15:19.741Z,1020.85
2016-08-07T08:16:19.728Z,1020.8
2016-08-07T08:17:19.709Z,1020.79
2016-08-07T08:18:19.693Z,1020.79
2016-08-07T08:19:19.676Z,1020.78
2016-08-07T08:20:19.659Z,1020.78
2016-08-07T08:21:19.643Z,1020.78
2016-08-07T08:22:19.628Z,1020.76
2016-08-07T08:23:19.611Z,1020.75
2016-08-07T08:24:19.596Z,1020.73
2016-08-07T08:25:19.580Z,1020.76
2016-08-07T08:26:19.564Z,1020.72
2016-08-07T08:27:19.546Z,1020.72
2016-08-07T08:28:19.529Z,1020.72
2016-08-07T08:29:19.517Z,1020.67
2016-08-07T08:30:19.498Z,1020.69
2016-08-07T08:31:19.483Z,1020.63
2016-08-07T08:32:19.464Z,1020.59
2016-08-07T08:33:19.449Z,1020.65
2016-08-07T08:34:19.433Z,1020.58
2016-08-07T08:35:19.416Z,1020.6
2016-08-07T08:36:19.410Z,1020.56
2016-08-07T08:37:19.385Z,1020.61
2016-08-07T08:38:19.380Z,1020.66
2016-08-07T08:39:19.353Z,1020.59
2016-08-07T08:40:19.336Z,1020.6
2016-08-07T08:41:19.324Z,1020.59
2016-08-07T08:42:19.305Z,1020.58
2016-08-07T08:43:19.285Z,1020.49
2016-08-07T08:44:19.272Z,1020.54
2016-08-07T08:45:19.253Z,1020.52
2016-08-07T08:46:19.241Z,1020.6
2016-08-07T08:47:19.220Z,1020.6
2016-08-07T08:48:19.205Z,1020.53
2016-08-07T08:49:19.190Z,1020.55
2016-08-07T08:50:19.171Z,1020.54
2016-08-07T08:51:19.159Z,1020.61
2016-08-07T08:52:19.143Z,1020.56
2016-08-07T08:53:19.126Z,1020.56
2016-08-07T08:54:19.106Z,1020.63
2016-08-07T08:55:19.099Z,1020.56
2016-08-07T08:56:19.075Z,1020.56
2016-08-07T08:57:19.059Z,1020.57
2016-08-07T08:58:19.057Z,1020.62
2016-08-07T08:59:19.029Z,1020.65
2016-08-07T09:00:19.014Z,1020.65
2016-08-07T09:01:18.998Z,1020.57
2016-08-07T09:02:18.982Z,1020.52
2016-08-07T09:03:18.964Z,1020.57
2016-08-07T09:04:18.947Z,1020.57
2016-08-07T09:05:18.939Z,1020.55
2016-08-07T09:06:18.913Z,1020.52
2016-08-07T09:07:18.897Z,1020.57
2016-08-07T09:08:18.884Z,1020.51
2016-08-07T09:09:18.865Z,1020.52
2016-08-07T09:10:18.847Z,1020.52
2016-08-07T09:11:18.836Z,1020.49
2016-08-07T09:12:18.814Z,1020.56
2016-08-07T09:13:18.800Z,1020.5
2016-08-07T09:14:18.782Z,1020.48
2016-08-07T09:15:18.768Z,1020.48
2016-08-07T09:16:18.751Z,1020.42
2016-08-07T09:17:18.736Z,1020.45
2016-08-07T09:18:18.718Z,1020.39
2016-08-07T09:19:18.701Z,1020.4
2016-08-07T09:20:18.687Z,1020.4
2016-08-07T09:21:18.671Z,1020.36
2016-08-07T09:22:18.655Z,1020.29
2016-08-07T09:24:18.621Z,1020.29
2016-08-07T09:25:18.607Z,1020.38
2016-08-07T09:26:18.593Z,1020.31
2016-08-07T09:27:18.572Z,1020.36
2016-08-07T09:28:18.556Z,1020.34
2016-08-07T09:29:18.582Z,1020.34
2016-08-07T09:30:18.522Z,1020.26
2016-08-07T09:31:18.508Z,1020.26
2016-08-07T09:32:18.490Z,1020.26
2016-08-07T09:33:18.475Z,1020.24
2016-08-07T09:34:18.464Z,1020.29
2016-08-07T09:35:18.443Z,1020.28
2016-08-07T09:36:18.427Z,1020.19
2016-08-07T09:37:18.408Z,1020.21
2016-08-07T09:38:18.394Z,1020.19
2016-08-07T09:39:18.375Z,1020.2
2016-08-07T09:40:18.361Z,1020.09
2016-08-07T09:41:18.344Z,1020.06
2016-08-07T09:42:18.331Z,1020.12
2016-08-07T09:43:18.315Z,1020.07
2016-08-07T09:44:18.296Z,1020.01
2016-08-07T09:45:18.281Z,1020.02
2016-08-07T09:46:18.267Z,1020.01
2016-08-07T09:47:18.248Z,1019.99
2016-08-07T09:48:18.235Z,1020.01
2016-08-07T09:49:18.215Z,1020.02
2016-08-07T09:50:18.204Z,1019.98
2016-08-07T09:51:18.183Z,1019.97
2016-08-07T09:52:18.168Z,1020
2016-08-07T09:54:18.135Z,1019.98
2016-08-07T09:55:18.117Z,1020.06
2016-08-07T09:56:18.100Z,1019.92
2016-08-07T09:57:18.087Z,1019.99
2016-08-07T09:58:18.070Z,1019.96
2016-08-07T09:59:18.055Z,1019.95
2016-08-07T10:00:18.038Z,1019.88
2016-08-07T10:01:18.027Z,1019.87
2016-08-07T10:02:18.007Z,1019.87
2016-08-07T10:03:17.994Z,1019.91
2016-08-07T10:04:17.975Z,1019.81
2016-08-07T10:05:17.959Z,1019.79
2016-08-07T10:06:17.946Z,1019.77
2016-08-07T10:07:17.923Z,1019.81
2016-08-07T10:08:17.910Z,1019.77
2016-08-07T10:09:17.892Z,1019.77
2016-08-07T10:10:17.878Z,1019.77
2016-08-07T10:11:17.864Z,1019.68
2016-08-07T10:12:17.846Z,1019.71
2016-08-07T10:13:17.828Z,1019.64
2016-08-07T10:14:17.818Z,1019.64
2016-08-07T10:15:17.795Z,1019.63
2016-08-07T10:16:17.784Z,1019.63
2016-08-07T10:17:17.763Z,1019.67
2016-08-07T10:18:17.752Z,1019.63
2016-08-07T10:19:17.749Z,1019.56
2016-08-07T10:20:17.719Z,1019.57
2016-08-07T10:21:17.698Z,1019.49
2016-08-07T10:22:17.686Z,1019.48
2016-08-07T10:23:17.672Z,1019.53
2016-08-07T10:24:17.655Z,1019.47
2016-08-07T10:25:17.635Z,1019.45
2016-08-07T10:26:17.619Z,1019.51
2016-08-07T10:27:17.604Z,1019.47
2016-08-07T10:28:17.588Z,1019.47
2016-08-07T10:29:17.572Z,1019.48
2016-08-07T10:30:17.556Z,1019.44
2016-08-07T10:31:17.540Z,1019.41
2016-08-07T10:32:17.523Z,1019.45
2016-08-07T10:33:17.506Z,1019.38
2016-08-07T10:34:17.492Z,1019.42
2016-08-07T10:35:17.475Z,1019.44
2016-08-07T10:36:17.457Z,1019.41
2016-08-07T10:37:17.442Z,1019.4
2016-08-07T10:38:17.426Z,1019.36
2016-08-07T10:39:17.412Z,1019.32
2016-08-07T10:40:17.393Z,1019.36
2016-08-07T10:41:17.371Z,1019.31
2016-08-07T10:42:17.363Z,1019.3
2016-08-07T10:43:17.345Z,1019.27
2016-08-07T10:44:17.328Z,1019.25
2016-08-07T10:45:17.314Z,1019.23
2016-08-07T10:46:17.298Z,1019.22
2016-08-07T10:47:17.278Z,1019.09
2016-08-07T10:48:17.265Z,1019.18
2016-08-07T10:49:17.248Z,1019.14
2016-08-07T10:50:17.235Z,1019.06
2016-08-07T10:51:17.217Z,1019.15
2016-08-07T10:52:17.201Z,1019.12
2016-08-07T10:53:17.183Z,1019.09
2016-08-07T10:54:17.168Z,1019.07
2016-08-07T10:55:17.150Z,1019.03
2016-08-07T10:56:17.144Z,1019.03
2016-08-07T10:57:17.121Z,1019.04
2016-08-07T10:58:17.104Z,1019.02
2016-08-07T10:59:17.086Z,1018.98
2016-08-07T11:00:17.075Z,1018.94
2016-08-07T11:01:17.055Z,1018.97
2016-08-07T11:02:17.040Z,1018.98
2016-08-07T11:03:17.074Z,1018.91
2016-08-07T11:04:17.007Z,1018.93
2016-08-07T11:05:16.990Z,1018.87
2016-08-07T11:06:16.975Z,1018.83
2016-08-07T11:07:16.958Z,1018.88
2016-08-07T11:08:16.943Z,1018.86
2016-08-07T11:09:16.927Z,1018.94
2016-08-07T11:10:16.911Z,1018.84
2016-08-07T11:11:16.896Z,1018.82
2016-08-07T11:12:16.879Z,1018.83
2016-08-07T11:13:16.862Z,1018.9
2016-08-07T11:14:16.845Z,1018.81
2016-08-07T11:15:16.831Z,1018.88
2016-08-07T11:16:16.813Z,1018.87
2016-08-07T11:17:16.798Z,1018.88
2016-08-07T11:18:16.784Z,1018.92
2016-08-07T11:19:16.767Z,1018.83
2016-08-07T11:20:16.751Z,1018.9
2016-08-07T11:21:16.735Z,1018.88
2016-08-07T11:22:16.724Z,1018.83
2016-08-07T11:23:16.704Z,1018.93
2016-08-07T11:24:16.685Z,1018.87
2016-08-07T11:25:16.672Z,1018.84
2016-08-07T11:26:16.655Z,1018.83
2016-08-07T11:27:16.640Z,1018.93
2016-08-07T11:28:16.621Z,1018.83
2016-08-07T11:29:16.616Z,1018.88
2016-08-07T11:30:16.594Z,1018.84
2016-08-07T11:31:16.578Z,1018.82
2016-08-07T11:32:16.560Z,1018.85
2016-08-07T11:33:16.545Z,1018.87
2016-08-07T11:34:16.532Z,1018.85
2016-08-07T11:35:16.514Z,1018.84
2016-08-07T11:36:16.498Z,1018.83
2016-08-07T11:37:16.485Z,1018.87
2016-08-07T11:38:16.465Z,1018.78
2016-08-07T11:39:16.450Z,1018.78
2016-08-07T11:40:16.438Z,1018.78
2016-08-07T11:41:16.421Z,1018.88
2016-08-07T11:42:16.409Z,1018.77
2016-08-07T11:43:16.385Z,1018.75
2016-08-07T11:44:16.373Z,1018.84
2016-08-07T11:45:16.356Z,1018.82
2016-08-07T11:46:16.342Z,1018.78
2016-08-07T11:47:16.322Z,1018.74
2016-08-07T11:48:16.310Z,1018.68
2016-08-07T11:49:16.293Z,1018.75
2016-08-07T11:50:16.282Z,1018.73
2016-08-07T11:51:16.265Z,1018.67
2016-08-07T11:52:16.258Z,1018.67
2016-08-07T11:53:16.229Z,1018.64
2016-08-07T11:54:16.216Z,1018.65
2016-08-07T11:55:16.199Z,1018.7
2016-08-07T11:56:16.181Z,1018.67
2016-08-07T11:57:16.169Z,1018.6
2016-08-07T11:58:16.151Z,1018.62
2016-08-07T11:59:16.137Z,1018.59
2016-08-07T12:00:16.118Z,1018.52
2016-08-07T12:01:16.105Z,1018.49
2016-08-07T12:02:16.092Z,1018.55
2016-08-07T12:03:16.077Z,1018.54
2016-08-07T12:04:16.055Z,1018.45
2016-08-07T12:05:16.040Z,1018.48
2016-08-07T12:06:16.026Z,1018.45
2016-08-07T12:07:16.009Z,1018.4
2016-08-07T12:08:15.993Z,1018.43
2016-08-07T12:09:15.979Z,1018.4
2016-08-07T12:10:15.964Z,1018.39
2016-08-07T12:11:15.953Z,1018.41
2016-08-07T12:12:15.933Z,1018.37
2016-08-07T12:13:15.912Z,1018.38
2016-08-07T12:14:15.899Z,1018.35
2016-08-07T12:15:15.883Z,1018.43
2016-08-07T12:16:15.869Z,1018.35
2016-08-07T12:17:15.855Z,1018.32
2016-08-07T12:18:15.838Z,1018.31
2016-08-07T12:19:15.820Z,1018.33
2016-08-07T12:20:15.806Z,1018.3
2016-08-07T12:21:15.791Z,1018.35
2016-08-07T12:22:15.774Z,1018.36
2016-08-07T12:23:15.758Z,1018.37
2016-08-07T12:24:15.741Z,1018.31
2016-08-07T12:25:15.728Z,1018.3
2016-08-07T12:26:15.713Z,1018.3
2016-08-07T12:27:15.695Z,1018.3
2016-08-07T12:28:15.683Z,1018.32
2016-08-07T12:29:15.670Z,1018.24
2016-08-07T12:30:15.651Z,1018.14
2016-08-07T12:31:15.635Z,1018.26